sensor_id;sensor_type;location;lat;lon;timestamp;pressure;altitude;pressure_sealevel;temperature;humidity
12172;BME280;6149;52.418;13.668;2022-07-29T00:01:21;101522.84;;;14.76;78.51
12172;BME280;6149;52.418;13.668;2022-07-29T00:03:47;101525.75;;;14.71;78.88
12172;BME280;6149;52.418;13.668;2022-07-29T00:06:14;101528.25;;;14.75;78.01
12172;BME280;6149;52.418;13.668;2022-07-29T00:08:41;101531.84;;;14.74;78.85
12172;BME280;6149;52.418;13.668;2022-07-29T00:11:07;101523.00;;;14.73;78.59
12172;BME280;6149;52.418;13.668;2022-07-29T00:13:35;101534.78;;;14.69;79.23
12172;BME280;6149;52.418;13.668;2022-07-29T00:16:02;101534.00;;;14.67;79.32
12172;BME280;6149;52.418;13.668;2022-07-29T00:18:29;101525.41;;;14.62;79.33
12172;BME280;6149;52.418;13.668;2022-07-29T00:20:56;101529.09;;;14.59;79.69
12172;BME280;6149;52.418;13.668;2022-07-29T00:23:22;101522.13;;;14.57;79.82
12172;BME280;6149;52.418;13.668;2022-07-29T00:25:49;101524.88;;;14.55;79.99
12172;BME280;6149;52.418;13.668;2022-07-29T00:28:15;101516.19;;;14.52;80.47
12172;BME280;6149;52.418;13.668;2022-07-29T00:30:43;101516.38;;;14.49;80.62
12172;BME280;6149;52.418;13.668;2022-07-29T00:33:10;101517.50;;;14.45;81.16
12172;BME280;6149;52.418;13.668;2022-07-29T00:35:36;101517.72;;;14.40;81.39
12172;BME280;6149;52.418;13.668;2022-07-29T00:38:12;101524.16;;;14.36;81.78
12172;BME280;6149;52.418;13.668;2022-07-29T00:40:40;101527.75;;;14.35;81.51
12172;BME280;6149;52.418;13.668;2022-07-29T00:43:08;101519.94;;;14.32;81.98
12172;BME280;6149;52.418;13.668;2022-07-29T00:45:35;101519.16;;;14.30;82.35
12172;BME280;6149;52.418;13.668;2022-07-29T00:48:03;101523.59;;;14.29;81.85
12172;BME280;6149;52.418;13.668;2022-07-29T00:50:34;101516.72;;;14.25;82.18
12172;BME280;6149;52.418;13.668;2022-07-29T00:53:02;101520.50;;;14.21;82.29
12172;BME280;6149;52.418;13.668;2022-07-29T00:55:31;101521.59;;;14.17;82.66
12172;BME280;6149;52.418;13.668;2022-07-29T00:57:58;101513.00;;;14.12;83.39
12172;BME280;6149;52.418;13.668;2022-07-29T01:00:28;101514.22;;;14.07;83.28
12172;BME280;6149;52.418;13.668;2022-07-29T01:02:54;101506.63;;;13.99;83.77
12172;BME280;6149;52.418;13.668;2022-07-29T01:05:24;101506.88;;;13.94;83.75
12172;BME280;6149;52.418;13.668;2022-07-29T01:07:54;101503.50;;;13.91;84.52
12172;BME280;6149;52.418;13.668;2022-07-29T01:10:21;101502.03;;;13.85;84.48
12172;BME280;6149;52.418;13.668;2022-07-29T01:12:51;101487.19;;;13.81;84.72
12172;BME280;6149;52.418;13.668;2022-07-29T01:15:19;101495.31;;;13.78;84.48
12172;BME280;6149;52.418;13.668;2022-07-29T01:17:52;101499.16;;;13.73;85.03
12172;BME280;6149;52.418;13.668;2022-07-29T01:20:50;101492.28;;;13.68;85.03
12172;BME280;6149;52.418;13.668;2022-07-29T01:23:40;101490.81;;;13.63;85.53
12172;BME280;6149;52.418;13.668;2022-07-29T01:26:36;101478.63;;;13.59;85.47
12172;BME280;6149;52.418;13.668;2022-07-29T01:29:13;101487.69;;;13.55;85.89
12172;BME280;6149;52.418;13.668;2022-07-29T01:31:47;101475.25;;;13.55;86.10
12172;BME280;6149;52.418;13.668;2022-07-29T01:34:21;101481.50;;;13.54;86.23
12172;BME280;6149;52.418;13.668;2022-07-29T01:36:55;101469.38;;;13.49;86.74
12172;BME280;6149;52.418;13.668;2022-07-29T01:39:32;101465.16;;;13.45;86.97
12172;BME280;6149;52.418;13.668;2022-07-29T01:42:06;101464.38;;;13.43;87.22
12172;BME280;6149;52.418;13.668;2022-07-29T01:44:45;101456.66;;;13.38;87.53
12172;BME280;6149;52.418;13.668;2022-07-29T01:47:19;101448.94;;;13.33;87.49
12172;BME280;6149;52.418;13.668;2022-07-29T01:49:49;101446.50;;;13.29;87.86
12172;BME280;6149;52.418;13.668;2022-07-29T01:52:21;101439.63;;;13.25;88.31
12172;BME280;6149;52.418;13.668;2022-07-29T01:54:53;101426.28;;;13.26;88.18
12172;BME280;6149;52.418;13.668;2022-07-29T01:57:25;101428.16;;;13.24;88.98
12172;BME280;6149;52.418;13.668;2022-07-29T01:59:56;101417.44;;;13.26;88.68
12172;BME280;6149;52.418;13.668;2022-07-29T02:02:24;101425.34;;;13.27;88.93
12172;BME280;6149;52.418;13.668;2022-07-29T02:04:53;101424.69;;;13.39;87.95
12172;BME280;6149;52.418;13.668;2022-07-29T02:07:21;101412.09;;;13.43;87.96
12172;BME280;6149;52.418;13.668;2022-07-29T02:09:50;101413.75;;;13.46;88.08
12172;BME280;6149;52.418;13.668;2022-07-29T02:12:19;101412.72;;;13.48;87.64
12172;BME280;6149;52.418;13.668;2022-07-29T02:14:50;101418.97;;;13.47;87.72
12172;BME280;6149;52.418;13.668;2022-07-29T02:17:22;101418.97;;;13.47;88.14
12172;BME280;6149;52.418;13.668;2022-07-29T02:19:52;101418.13;;;13.47;88.24
12172;BME280;6149;52.418;13.668;2022-07-29T02:22:22;101424.28;;;13.47;88.12
12172;BME280;6149;52.418;13.668;2022-07-29T02:24:51;101420.78;;;13.47;87.60
12172;BME280;6149;52.418;13.668;2022-07-29T02:27:20;101421.72;;;13.46;88.18
12172;BME280;6149;52.418;13.668;2022-07-29T02:29:49;101418.13;;;13.47;87.79
12172;BME280;6149;52.418;13.668;2022-07-29T02:32:19;101426.09;;;13.47;87.80
12172;BME280;6149;52.418;13.668;2022-07-29T02:34:51;101425.00;;;13.51;87.65
12172;BME280;6149;52.418;13.668;2022-07-29T02:37:19;101429.44;;;13.50;87.55
12172;BME280;6149;52.418;13.668;2022-07-29T02:39:47;101438.28;;;13.51;87.93
12172;BME280;6149;52.418;13.668;2022-07-29T02:42:17;101434.00;;;13.48;87.70
12172;BME280;6149;52.418;13.668;2022-07-29T02:44:44;101438.59;;;13.45;87.97
12172;BME280;6149;52.418;13.668;2022-07-29T02:47:16;101441.47;;;13.40;89.15
12172;BME280;6149;52.418;13.668;2022-07-29T02:49:53;101440.03;;;13.34;89.10
12172;BME280;6149;52.418;13.668;2022-07-29T02:52:25;101433.16;;;13.30;88.81
12172;BME280;6149;52.418;13.668;2022-07-29T02:54:56;101433.31;;;13.27;89.06
12172;BME280;6149;52.418;13.668;2022-07-29T02:57:32;101426.44;;;13.23;90.11
12172;BME280;6149;52.418;13.668;2022-07-29T03:00:03;101431.03;;;13.20;89.91
12172;BME280;6149;52.418;13.668;2022-07-29T03:02:35;101439.94;;;13.19;90.78
12172;BME280;6149;52.418;13.668;2022-07-29T03:05:06;101434.78;;;13.16;90.40
12172;BME280;6149;52.418;13.668;2022-07-29T03:07:35;101439.28;;;13.14;90.44
12172;BME280;6149;52.418;13.668;2022-07-29T03:10:03;101434.91;;;13.13;90.31
12172;BME280;6149;52.418;13.668;2022-07-29T03:12:31;101436.78;;;13.11;90.63
12172;BME280;6149;52.418;13.668;2022-07-29T03:14:59;101438.66;;;13.09;90.94
12172;BME280;6149;52.418;13.668;2022-07-29T03:17:27;101436.78;;;13.11;91.32
12172;BME280;6149;52.418;13.668;2022-07-29T03:19:55;101428.81;;;13.11;91.49
12172;BME280;6149;52.418;13.668;2022-07-29T03:22:22;101432.25;;;13.13;91.35
12172;BME280;6149;52.418;13.668;2022-07-29T03:24:48;101431.31;;;13.14;90.95
12172;BME280;6149;52.418;13.668;2022-07-29T03:27:15;101430.38;;;13.15;91.19
12172;BME280;6149;52.418;13.668;2022-07-29T03:29:42;101421.44;;;13.17;90.97
12172;BME280;6149;52.418;13.668;2022-07-29T03:32:08;101418.69;;;13.19;90.88
12172;BME280;6149;52.418;13.668;2022-07-29T03:34:36;101419.41;;;13.22;91.00
12172;BME280;6149;52.418;13.668;2022-07-29T03:37:05;101418.31;;;13.26;90.40
12172;BME280;6149;52.418;13.668;2022-07-29T03:39:35;101419.00;;;13.30;90.46
12172;BME280;6149;52.418;13.668;2022-07-29T03:42:06;101416.78;;;13.38;90.21
12172;BME280;6149;52.418;13.668;2022-07-29T03:44:36;101419.22;;;13.43;89.43
12172;BME280;6149;52.418;13.668;2022-07-29T03:47:05;101411.94;;;13.46;89.88
12172;BME280;6149;52.418;13.668;2022-07-29T03:49:35;101420.38;;;13.54;88.81
12172;BME280;6149;52.418;13.668;2022-07-29T03:52:05;101416.78;;;13.55;88.76
12172;BME280;6149;52.418;13.668;2022-07-29T03:54:32;101406.69;;;13.62;88.81
12172;BME280;6149;52.418;13.668;2022-07-29T03:57:01;101417.00;;;13.68;88.38
12172;BME280;6149;52.418;13.668;2022-07-29T03:59:30;101414.19;;;13.71;88.28
12172;BME280;6149;52.418;13.668;2022-07-29T04:01:59;101415.84;;;13.74;88.30
12172;BME280;6149;52.418;13.668;2022-07-29T04:04:29;101411.19;;;13.77;88.17
12172;BME280;6149;52.418;13.668;2022-07-29T04:06:59;101411.03;;;13.80;87.71
12172;BME280;6149;52.418;13.668;2022-07-29T04:09:27;101415.31;;;13.83;87.83
12172;BME280;6149;52.418;13.668;2022-07-29T04:11:53;101410.63;;;13.88;87.43
12172;BME280;6149;52.418;13.668;2022-07-29T04:14:20;101416.72;;;13.90;87.19
12172;BME280;6149;52.418;13.668;2022-07-29T04:16:46;101410.97;;;13.97;86.37
12172;BME280;6149;52.418;13.668;2022-07-29T04:19:13;101417.78;;;14.03;86.45
12172;BME280;6149;52.418;13.668;2022-07-29T04:21:40;101416.75;;;14.05;86.61
12172;BME280;6149;52.418;13.668;2022-07-29T04:24:08;101425.13;;;14.14;86.78
12172;BME280;6149;52.418;13.668;2022-07-29T04:26:35;101419.66;;;14.17;86.11
12172;BME280;6149;52.418;13.668;2022-07-29T04:29:02;101423.78;;;14.22;86.01
12172;BME280;6149;52.418;13.668;2022-07-29T04:31:28;101425.34;;;14.26;86.04
12172;BME280;6149;52.418;13.668;2022-07-29T04:33:55;101425.94;;;14.31;85.68
12172;BME280;6149;52.418;13.668;2022-07-29T04:36:21;101422.88;;;14.39;85.49
12172;BME280;6149;52.418;13.668;2022-07-29T04:38:48;101420.75;;;14.46;85.19
12172;BME280;6149;52.418;13.668;2022-07-29T04:41:15;101423.81;;;14.54;84.43
12172;BME280;6149;52.418;13.668;2022-07-29T04:43:42;101418.84;;;14.63;83.93
12172;BME280;6149;52.418;13.668;2022-07-29T04:46:09;101421.16;;;14.69;83.64
12172;BME280;6149;52.418;13.668;2022-07-29T04:48:35;101427.09;;;14.75;83.47
12172;BME280;6149;52.418;13.668;2022-07-29T04:51:02;101428.75;;;14.91;82.39
12172;BME280;6149;52.418;13.668;2022-07-29T04:53:29;101428.75;;;14.91;81.68
12172;BME280;6149;52.418;13.668;2022-07-29T04:55:55;101425.91;;;14.94;81.31
12172;BME280;6149;52.418;13.668;2022-07-29T04:58:22;101429.25;;;14.98;80.69
12172;BME280;6149;52.418;13.668;2022-07-29T05:00:50;101428.88;;;15.20;80.76
12172;BME280;6149;52.418;13.668;2022-07-29T05:03:17;101428.19;;;15.16;81.09
12172;BME280;6149;52.418;13.668;2022-07-29T05:05:44;101431.72;;;15.17;80.57
12172;BME280;6149;52.418;13.668;2022-07-29T05:08:10;101428.09;;;15.18;80.68
12172;BME280;6149;52.418;13.668;2022-07-29T05:10:37;101429.66;;;15.22;80.71
12172;BME280;6149;52.418;13.668;2022-07-29T05:13:04;101436.56;;;15.24;80.03
12172;BME280;6149;52.418;13.668;2022-07-29T05:15:31;101438.97;;;15.29;80.58
12172;BME280;6149;52.418;13.668;2022-07-29T05:18:00;101436.03;;;15.33;80.78
12172;BME280;6149;52.418;13.668;2022-07-29T05:20:27;101426.91;;;15.37;80.25
12172;BME280;6149;52.418;13.668;2022-07-29T05:22:54;101421.13;;;15.45;80.09
12172;BME280;6149;52.418;13.668;2022-07-29T05:25:21;101424.03;;;15.56;79.49
12172;BME280;6149;52.418;13.668;2022-07-29T05:27:47;101426.88;;;15.67;79.15
12172;BME280;6149;52.418;13.668;2022-07-29T05:30:14;101422.13;;;15.73;78.85
12172;BME280;6149;52.418;13.668;2022-07-29T05:32:41;101435.19;;;15.77;78.60
12172;BME280;6149;52.418;13.668;2022-07-29T05:35:09;101429.47;;;15.83;77.75
12172;BME280;6149;52.418;13.668;2022-07-29T05:37:36;101427.38;;;15.88;77.17
12172;BME280;6149;52.418;13.668;2022-07-29T05:40:04;101431.25;;;15.97;77.36
12172;BME280;6149;52.418;13.668;2022-07-29T05:42:31;101423.75;;;16.03;77.26
12172;BME280;6149;52.418;13.668;2022-07-29T05:44:59;101425.66;;;16.01;77.95
12172;BME280;6149;52.418;13.668;2022-07-29T05:47:26;101427.34;;;16.02;77.54
12172;BME280;6149;52.418;13.668;2022-07-29T05:49:52;101424.50;;;16.05;78.19
12172;BME280;6149;52.418;13.668;2022-07-29T05:52:20;101425.34;;;16.06;77.10
12172;BME280;6149;52.418;13.668;2022-07-29T05:54:47;101418.13;;;16.08;78.04
12172;BME280;6149;52.418;13.668;2022-07-29T05:57:17;101419.06;;;16.07;76.58
12172;BME280;6149;52.418;13.668;2022-07-29T05:59:44;101422.50;;;16.09;76.32
12172;BME280;6149;52.418;13.668;2022-07-29T06:02:11;101426.13;;;16.08;76.34
12172;BME280;6149;52.418;13.668;2022-07-29T06:04:38;101424.88;;;16.14;76.82
12172;BME280;6149;52.418;13.668;2022-07-29T06:07:04;101431.44;;;16.22;76.85
12172;BME280;6149;52.418;13.668;2022-07-29T06:09:33;101429.16;;;16.30;76.63
12172;BME280;6149;52.418;13.668;2022-07-29T06:12:00;101428.53;;;16.39;75.81
12172;BME280;6149;52.418;13.668;2022-07-29T06:14:26;101431.66;;;16.60;74.66
12172;BME280;6149;52.418;13.668;2022-07-29T06:16:55;101423.50;;;16.76;75.41
12172;BME280;6149;52.418;13.668;2022-07-29T06:19:22;101417.31;;;17.02;74.02
12172;BME280;6149;52.418;13.668;2022-07-29T06:21:49;101422.81;;;17.26;72.28
12172;BME280;6149;52.418;13.668;2022-07-29T06:24:16;101417.59;;;17.37;70.91
12172;BME280;6149;52.418;13.668;2022-07-29T06:26:44;101419.97;;;17.42;70.63
12172;BME280;6149;52.418;13.668;2022-07-29T06:29:10;101414.38;;;17.45;69.74
12172;BME280;6149;52.418;13.668;2022-07-29T06:31:37;101414.16;;;17.48;70.31
12172;BME280;6149;52.418;13.668;2022-07-29T06:34:04;101415.25;;;17.58;69.98
12172;BME280;6149;52.418;13.668;2022-07-29T06:36:34;101417.00;;;17.72;69.95
12172;BME280;6149;52.418;13.668;2022-07-29T06:39:03;101409.28;;;17.93;69.01
12172;BME280;6149;52.418;13.668;2022-07-29T06:41:31;101419.75;;;18.09;69.26
12172;BME280;6149;52.418;13.668;2022-07-29T06:43:59;101401.06;;;18.20;67.66
12172;BME280;6149;52.418;13.668;2022-07-29T06:46:26;101414.44;;;18.32;67.80
12172;BME280;6149;52.418;13.668;2022-07-29T06:48:53;101418.13;;;18.55;66.45
12172;BME280;6149;52.418;13.668;2022-07-29T06:51:21;101417.56;;;18.63;65.16
12172;BME280;6149;52.418;13.668;2022-07-29T06:53:49;101424.78;;;18.86;66.05
12172;BME280;6149;52.418;13.668;2022-07-29T06:56:16;101422.63;;;19.02;64.25
12172;BME280;6149;52.418;13.668;2022-07-29T06:58:42;101422.81;;;19.12;63.42
12172;BME280;6149;52.418;13.668;2022-07-29T07:01:10;101424.28;;;19.16;62.77
12172;BME280;6149;52.418;13.668;2022-07-29T07:03:37;101425.03;;;19.18;63.55
12172;BME280;6149;52.418;13.668;2022-07-29T07:06:03;101428.22;;;19.23;62.94
12172;BME280;6149;52.418;13.668;2022-07-29T07:08:30;101422.84;;;19.23;62.61
12172;BME280;6149;52.418;13.668;2022-07-29T07:10:57;101423.94;;;19.32;63.24
12172;BME280;6149;52.418;13.668;2022-07-29T07:13:23;101425.31;;;19.37;63.36
12172;BME280;6149;52.418;13.668;2022-07-29T07:15:51;101424.59;;;19.47;63.97
12172;BME280;6149;52.418;13.668;2022-07-29T07:18:19;101431.56;;;19.49;62.74
12172;BME280;6149;52.418;13.668;2022-07-29T07:20:45;101440.31;;;19.86;59.91
12172;BME280;6149;52.418;13.668;2022-07-29T07:23:12;101427.88;;;19.85;61.13
12172;BME280;6149;52.418;13.668;2022-07-29T07:25:39;101433.38;;;19.95;60.07
12172;BME280;6149;52.418;13.668;2022-07-29T07:28:06;101431.41;;;20.19;60.25
12172;BME280;6149;52.418;13.668;2022-07-29T07:30:32;101430.69;;;20.40;59.75
12172;BME280;6149;52.418;13.668;2022-07-29T07:32:59;101428.19;;;20.59;58.17
12172;BME280;6149;52.418;13.668;2022-07-29T07:35:27;101430.56;;;20.84;58.17
12172;BME280;6149;52.418;13.668;2022-07-29T07:37:54;101425.91;;;21.18;57.68
12172;BME280;6149;52.418;13.668;2022-07-29T07:40:21;101421.28;;;21.62;58.79
12172;BME280;6149;52.418;13.668;2022-07-29T07:42:48;101420.75;;;21.98;53.44
12172;BME280;6149;52.418;13.668;2022-07-29T07:45:14;101423.69;;;22.16;53.28
12172;BME280;6149;52.418;13.668;2022-07-29T07:47:41;101428.59;;;22.42;53.44
12172;BME280;6149;52.418;13.668;2022-07-29T07:50:10;101431.63;;;22.67;52.34
12172;BME280;6149;52.418;13.668;2022-07-29T07:52:47;101426.72;;;22.82;51.50
12172;BME280;6149;52.418;13.668;2022-07-29T07:55:15;101421.88;;;23.15;51.38
12172;BME280;6149;52.418;13.668;2022-07-29T07:57:42;101413.06;;;23.32;50.49
12172;BME280;6149;52.418;13.668;2022-07-29T08:00:10;101413.16;;;23.50;48.30
12172;BME280;6149;52.418;13.668;2022-07-29T08:02:38;101412.75;;;23.74;48.63
12172;BME280;6149;52.418;13.668;2022-07-29T08:05:05;101406.97;;;23.86;48.32
12172;BME280;6149;52.418;13.668;2022-07-29T08:07:33;101418.19;;;24.01;46.87
12172;BME280;6149;52.418;13.668;2022-07-29T08:10:01;101420.63;;;24.22;46.32
12172;BME280;6149;52.418;13.668;2022-07-29T08:12:27;101409.66;;;24.23;45.96
12172;BME280;6149;52.418;13.668;2022-07-29T08:14:54;101415.56;;;24.46;47.18
12172;BME280;6149;52.418;13.668;2022-07-29T08:17:20;101415.47;;;24.56;46.06
12172;BME280;6149;52.418;13.668;2022-07-29T08:19:47;101412.16;;;24.44;44.61
12172;BME280;6149;52.418;13.668;2022-07-29T08:22:14;101406.44;;;24.47;44.74
12172;BME280;6149;52.418;13.668;2022-07-29T08:24:41;101415.06;;;24.23;44.96
12172;BME280;6149;52.418;13.668;2022-07-29T08:27:19;101414.00;;;24.44;46.85
12172;BME280;6149;52.418;13.668;2022-07-29T08:29:46;101410.94;;;24.74;45.97
12172;BME280;6149;52.418;13.668;2022-07-29T08:32:13;101404.78;;;25.17;46.76
12172;BME280;6149;52.418;13.668;2022-07-29T08:34:39;101400.97;;;25.28;42.97
12172;BME280;6149;52.418;13.668;2022-07-29T08:37:06;101399.13;;;25.54;43.22
12172;BME280;6149;52.418;13.668;2022-07-29T08:39:32;101403.59;;;25.89;43.07
12172;BME280;6149;52.418;13.668;2022-07-29T08:41:59;101406.53;;;25.96;41.27
12172;BME280;6149;52.418;13.668;2022-07-29T08:44:27;101419.00;;;26.23;40.47
12172;BME280;6149;52.418;13.668;2022-07-29T08:46:53;101403.53;;;26.15;41.24
12172;BME280;6149;52.418;13.668;2022-07-29T08:49:20;101398.53;;;26.28;40.99
12172;BME280;6149;52.418;13.668;2022-07-29T08:51:47;101398.59;;;26.45;39.54
12172;BME280;6149;52.418;13.668;2022-07-29T08:54:16;101389.09;;;26.07;40.54
12172;BME280;6149;52.418;13.668;2022-07-29T08:56:45;101384.47;;;25.91;40.67
12172;BME280;6149;52.418;13.668;2022-07-29T08:59:15;101388.56;;;25.95;42.19
12172;BME280;6149;52.418;13.668;2022-07-29T09:01:46;101396.59;;;26.13;41.47
12172;BME280;6149;52.418;13.668;2022-07-29T09:04:13;101391.72;;;25.82;39.84
12172;BME280;6149;52.418;13.668;2022-07-29T09:06:43;101390.72;;;25.40;40.01
12172;BME280;6149;52.418;13.668;2022-07-29T09:09:12;101383.50;;;25.22;39.71
12172;BME280;6149;52.418;13.668;2022-07-29T09:11:40;101389.56;;;25.16;39.54
12172;BME280;6149;52.418;13.668;2022-07-29T09:14:08;101378.03;;;24.96;40.67
12172;BME280;6149;52.418;13.668;2022-07-29T09:16:52;101382.31;;;24.89;40.74
12172;BME280;6149;52.418;13.668;2022-07-29T09:19:25;101385.72;;;24.91;41.13
12172;BME280;6149;52.418;13.668;2022-07-29T09:21:55;101380.28;;;25.01;42.31
12172;BME280;6149;52.418;13.668;2022-07-29T09:24:36;101382.91;;;25.11;40.66
12172;BME280;6149;52.418;13.668;2022-07-29T09:27:19;101363.66;;;24.96;40.54
12172;BME280;6149;52.418;13.668;2022-07-29T09:29:47;101374.00;;;25.01;41.12
12172;BME280;6149;52.418;13.668;2022-07-29T09:32:23;101374.09;;;25.09;42.60
12172;BME280;6149;52.418;13.668;2022-07-29T09:34:51;101368.53;;;25.36;41.62
12172;BME280;6149;52.418;13.668;2022-07-29T09:37:41;101371.34;;;25.52;39.96
12172;BME280;6149;52.418;13.668;2022-07-29T09:40:12;101370.09;;;25.64;39.09
12172;BME280;6149;52.418;13.668;2022-07-29T09:42:41;101366.16;;;25.85;38.41
12172;BME280;6149;52.418;13.668;2022-07-29T09:45:08;101363.84;;;25.98;40.13
12172;BME280;6149;52.418;13.668;2022-07-29T09:47:44;101370.19;;;26.23;38.97
12172;BME280;6149;52.418;13.668;2022-07-29T09:50:12;101371.16;;;26.56;37.52
12172;BME280;6149;52.418;13.668;2022-07-29T09:52:45;101367.94;;;26.60;37.59
12172;BME280;6149;52.418;13.668;2022-07-29T09:55:13;101371.34;;;26.79;37.61
12172;BME280;6149;52.418;13.668;2022-07-29T09:57:40;101374.78;;;27.13;37.68
12172;BME280;6149;52.418;13.668;2022-07-29T10:00:08;101373.75;;;27.22;36.39
12172;BME280;6149;52.418;13.668;2022-07-29T10:02:37;101358.31;;;27.39;36.10
12172;BME280;6149;52.418;13.668;2022-07-29T10:05:16;101367.25;;;27.56;35.50
12172;BME280;6149;52.418;13.668;2022-07-29T10:07:45;101361.31;;;27.52;34.71
12172;BME280;6149;52.418;13.668;2022-07-29T10:10:22;101357.59;;;27.61;35.37
12172;BME280;6149;52.418;13.668;2022-07-29T10:12:52;101363.19;;;27.68;35.07
12172;BME280;6149;52.418;13.668;2022-07-29T10:15:22;101363.16;;;27.76;35.75
12172;BME280;6149;52.418;13.668;2022-07-29T10:17:50;101362.09;;;27.85;35.51
12172;BME280;6149;52.418;13.668;2022-07-29T10:20:19;101360.31;;;28.09;35.30
12172;BME280;6149;52.418;13.668;2022-07-29T10:22:47;101368.34;;;27.94;34.22
12172;BME280;6149;52.418;13.668;2022-07-29T10:25:15;101357.75;;;28.07;34.10
12172;BME280;6149;52.418;13.668;2022-07-29T10:27:42;101353.88;;;28.02;34.01
12172;BME280;6149;52.418;13.668;2022-07-29T10:30:11;101353.00;;;28.09;34.85
12172;BME280;6149;52.418;13.668;2022-07-29T10:32:54;101359.09;;;28.11;34.98
12172;BME280;6149;52.418;13.668;2022-07-29T10:35:41;101344.56;;;27.88;34.09
12172;BME280;6149;52.418;13.668;2022-07-29T10:38:33;101338.88;;;27.67;34.15
12172;BME280;6149;52.418;13.668;2022-07-29T10:41:17;101345.03;;;27.60;35.18
12172;BME280;6149;52.418;13.668;2022-07-29T10:43:55;101345.00;;;27.69;39.18
12172;BME280;6149;52.418;13.668;2022-07-29T10:46:23;101339.22;;;27.72;34.43
12172;BME280;6149;52.418;13.668;2022-07-29T10:49:11;101331.75;;;27.57;35.98
12172;BME280;6149;52.418;13.668;2022-07-29T10:52:00;101332.44;;;27.59;36.98
12172;BME280;6149;52.418;13.668;2022-07-29T10:54:48;101333.16;;;27.45;35.74
12172;BME280;6149;52.418;13.668;2022-07-29T10:57:19;101328.03;;;27.50;36.80
12172;BME280;6149;52.418;13.668;2022-07-29T10:59:48;101337.19;;;27.66;36.36
12172;BME280;6149;52.418;13.668;2022-07-29T11:02:41;101330.44;;;27.45;36.61
12172;BME280;6149;52.418;13.668;2022-07-29T11:05:09;101322.81;;;27.41;36.62
12172;BME280;6149;52.418;13.668;2022-07-29T11:08:19;101325.72;;;27.31;37.41
12172;BME280;6149;52.418;13.668;2022-07-29T11:10:49;101329.59;;;27.45;38.41
12172;BME280;6149;52.418;13.668;2022-07-29T11:13:44;101324.13;;;27.61;38.28
12172;BME280;6149;52.418;13.668;2022-07-29T11:16:12;101322.41;;;27.68;39.52
12172;BME280;6149;52.418;13.668;2022-07-29T11:21:47;101321.63;;;27.35;38.80
12172;BME280;6149;52.418;13.668;2022-07-29T11:24:18;101317.53;;;27.39;38.59
12172;BME280;6149;52.418;13.668;2022-07-29T11:27:10;101317.53;;;27.39;39.40
12172;BME280;6149;52.418;13.668;2022-07-29T11:29:40;101320.44;;;27.38;39.38
12172;BME280;6149;52.418;13.668;2022-07-29T11:32:14;101313.50;;;27.19;39.49
12172;BME280;6149;52.418;13.668;2022-07-29T11:34:45;101310.16;;;27.09;39.67
12172;BME280;6149;52.418;13.668;2022-07-29T11:37:19;101310.94;;;27.17;41.17
12172;BME280;6149;52.418;13.668;2022-07-29T11:40:09;101304.88;;;27.07;39.68
12172;BME280;6149;52.418;13.668;2022-07-29T11:42:41;101311.50;;;27.05;40.14
12172;BME280;6149;52.418;13.668;2022-07-29T11:45:11;101311.63;;;26.95;40.24
12172;BME280;6149;52.418;13.668;2022-07-29T11:47:40;101306.06;;;26.96;37.95
12172;BME280;6149;52.418;13.668;2022-07-29T11:50:10;101302.47;;;27.12;40.64
12172;BME280;6149;52.418;13.668;2022-07-29T11:52:39;101302.97;;;27.24;40.40
12172;BME280;6149;52.418;13.668;2022-07-29T11:55:13;101295.47;;;27.34;40.23
12172;BME280;6149;52.418;13.668;2022-07-29T11:57:48;101299.22;;;27.41;39.69
12172;BME280;6149;52.418;13.668;2022-07-29T12:00:26;101306.84;;;27.46;38.62
12172;BME280;6149;52.418;13.668;2022-07-29T12:02:55;101299.41;;;27.32;38.03
12172;BME280;6149;52.418;13.668;2022-07-29T12:05:31;101299.06;;;27.18;38.59
12172;BME280;6149;52.418;13.668;2022-07-29T12:08:07;101296.19;;;27.20;38.42
12172;BME280;6149;52.418;13.668;2022-07-29T12:10:37;101288.59;;;27.07;39.24
12172;BME280;6149;52.418;13.668;2022-07-29T12:13:04;101288.88;;;27.28;39.22
12172;BME280;6149;52.418;13.668;2022-07-29T12:15:31;101284.63;;;27.26;39.11
12172;BME280;6149;52.418;13.668;2022-07-29T12:17:58;101280.88;;;27.35;40.95
12172;BME280;6149;52.418;13.668;2022-07-29T12:20:26;101286.66;;;27.40;40.18
12172;BME280;6149;52.418;13.668;2022-07-29T12:22:54;101277.31;;;27.35;39.95
12172;BME280;6149;52.418;13.668;2022-07-29T12:25:22;101274.59;;;27.35;39.23
12172;BME280;6149;52.418;13.668;2022-07-29T12:28:01;101270.72;;;27.29;38.98
12172;BME280;6149;52.418;13.668;2022-07-29T12:30:38;101280.41;;;27.23;39.44
12172;BME280;6149;52.418;13.668;2022-07-29T12:33:13;101273.94;;;27.33;39.27
12172;BME280;6149;52.418;13.668;2022-07-29T12:35:47;101270.03;;;27.27;38.80
12172;BME280;6149;52.418;13.668;2022-07-29T12:38:16;101256.78;;;27.24;39.19
12172;BME280;6149;52.418;13.668;2022-07-29T12:40:44;101264.63;;;27.19;39.39
12172;BME280;6149;52.418;13.668;2022-07-29T12:43:14;101274.78;;;27.25;39.38
12172;BME280;6149;52.418;13.668;2022-07-29T12:45:43;101259.88;;;27.13;38.83
12172;BME280;6149;52.418;13.668;2022-07-29T12:48:11;101265.81;;;27.16;39.16
12172;BME280;6149;52.418;13.668;2022-07-29T12:50:52;101263.94;;;27.17;38.40
12172;BME280;6149;52.418;13.668;2022-07-29T12:53:19;101254.94;;;27.24;38.71
12172;BME280;6149;52.418;13.668;2022-07-29T12:55:51;101253.22;;;27.23;38.34
12172;BME280;6149;52.418;13.668;2022-07-29T12:58:35;101251.31;;;27.40;39.36
12172;BME280;6149;52.418;13.668;2022-07-29T13:01:05;101254.03;;;27.40;38.99
12172;BME280;6149;52.418;13.668;2022-07-29T13:03:44;101252.31;;;27.47;37.85
12172;BME280;6149;52.418;13.668;2022-07-29T13:06:33;101248.03;;;27.61;37.77
12172;BME280;6149;52.418;13.668;2022-07-29T13:09:10;101238.84;;;27.54;38.01